sensor_id;sensor_type;location;lat;lon;timestamp;P1;durP1;ratioP1;P2;durP2;ratioP2
4642;SDS011;2334;48.710;9.622;2022-10-23T00:01:51;8.00;;;2.90;;
4642;SDS011;2334;48.710;9.622;2022-10-23T00:04:18;16.13;;;2.80;;
4642;SDS011;2334;48.710;9.622;2022-10-23T00:06:47;8.13;;;3.13;;
4642;SDS011;2334;48.710;9.622;2022-10-23T00:09:15;5.90;;;3.90;;
4642;SDS011;2334;48.710;9.622;2022-10-23T00:11:43;4.80;;;2.93;;
4642;SDS011;2334;48.710;9.622;2022-10-23T00:14:12;9.57;;;3.17;;
4642;SDS011;2334;48.710;9.622;2022-10-23T00:16:40;5.07;;;2.60;;
4642;SDS011;2334;48.710;9.622;2022-10-23T00:19:08;7.10;;;3.30;;
4642;SDS011;2334;48.710;9.622;2022-10-23T00:21:35;4.00;;;3.20;;
4642;SDS011;2334;48.710;9.622;2022-10-23T00:24:03;6.37;;;3.37;;
4642;SDS011;2334;48.710;9.622;2022-10-23T00:26:31;8.97;;;3.73;;
4642;SDS011;2334;48.710;9.622;2022-10-23T00:28:58;5.73;;;3.03;;
4642;SDS011;2334;48.710;9.622;2022-10-23T00:31:25;6.93;;;3.07;;
4642;SDS011;2334;48.710;9.622;2022-10-23T00:33:52;5.83;;;3.13;;
4642;SDS011;2334;48.710;9.622;2022-10-23T00:36:20;7.90;;;4.23;;
4642;SDS011;2334;48.710;9.622;2022-10-23T00:38:47;9.30;;;3.97;;
4642;SDS011;2334;48.710;9.622;2022-10-23T00:41:16;5.93;;;3.10;;
4642;SDS011;2334;48.710;9.622;2022-10-23T00:43:55;6.13;;;3.27;;
4642;SDS011;2334;48.710;9.622;2022-10-23T00:46:28;4.37;;;3.03;;
4642;SDS011;2334;48.710;9.622;2022-10-23T00:48:55;11.57;;;3.07;;
4642;SDS011;2334;48.710;9.622;2022-10-23T00:51:24;4.90;;;2.70;;
4642;SDS011;2334;48.710;9.622;2022-10-23T00:53:53;4.97;;;2.70;;
4642;SDS011;2334;48.710;9.622;2022-10-23T00:56:23;10.13;;;2.77;;
4642;SDS011;2334;48.710;9.622;2022-10-23T00:58:51;3.70;;;3.00;;
4642;SDS011;2334;48.710;9.622;2022-10-23T01:01:19;5.17;;;2.47;;
4642;SDS011;2334;48.710;9.622;2022-10-23T01:03:48;4.77;;;2.70;;
4642;SDS011;2334;48.710;9.622;2022-10-23T01:06:17;3.10;;;2.80;;
4642;SDS011;2334;48.710;9.622;2022-10-23T01:08:54;12.30;;;3.80;;
4642;SDS011;2334;48.710;9.622;2022-10-23T01:11:28;3.40;;;2.90;;
4642;SDS011;2334;48.710;9.622;2022-10-23T01:14:05;9.70;;;3.33;;
4642;SDS011;2334;48.710;9.622;2022-10-23T01:16:40;7.57;;;2.83;;
4642;SDS011;2334;48.710;9.622;2022-10-23T01:19:16;3.50;;;2.90;;
4642;SDS011;2334;48.710;9.622;2022-10-23T01:21:50;8.77;;;3.13;;
4642;SDS011;2334;48.710;9.622;2022-10-23T01:24:29;3.80;;;2.27;;
4642;SDS011;2334;48.710;9.622;2022-10-23T01:27:18;4.13;;;2.80;;
4642;SDS011;2334;48.710;9.622;2022-10-23T01:29:49;4.33;;;2.43;;
4642;SDS011;2334;48.710;9.622;2022-10-23T01:32:26;6.30;;;3.37;;
4642;SDS011;2334;48.710;9.622;2022-10-23T01:35:02;7.97;;;3.27;;
4642;SDS011;2334;48.710;9.622;2022-10-23T01:37:36;4.90;;;3.90;;
4642;SDS011;2334;48.710;9.622;2022-10-23T01:40:08;4.00;;;2.87;;
4642;SDS011;2334;48.710;9.622;2022-10-23T01:42:40;11.07;;;4.40;;
4642;SDS011;2334;48.710;9.622;2022-10-23T01:45:15;5.63;;;3.73;;
4642;SDS011;2334;48.710;9.622;2022-10-23T01:47:49;4.80;;;3.00;;
4642;SDS011;2334;48.710;9.622;2022-10-23T01:50:19;7.00;;;3.50;;
4642;SDS011;2334;48.710;9.622;2022-10-23T01:52:48;9.23;;;3.83;;
4642;SDS011;2334;48.710;9.622;2022-10-23T01:55:16;5.67;;;3.50;;
4642;SDS011;2334;48.710;9.622;2022-10-23T01:57:44;4.97;;;2.97;;
4642;SDS011;2334;48.710;9.622;2022-10-23T02:00:15;16.73;;;3.93;;
4642;SDS011;2334;48.710;9.622;2022-10-23T02:02:43;5.60;;;3.50;;
4642;SDS011;2334;48.710;9.622;2022-10-23T02:05:13;6.33;;;3.40;;
4642;SDS011;2334;48.710;9.622;2022-10-23T02:07:43;5.53;;;3.10;;
4642;SDS011;2334;48.710;9.622;2022-10-23T02:10:10;4.37;;;3.77;;
4642;SDS011;2334;48.710;9.622;2022-10-23T02:12:42;3.83;;;3.00;;
4642;SDS011;2334;48.710;9.622;2022-10-23T02:15:18;8.03;;;3.30;;
4642;SDS011;2334;48.710;9.622;2022-10-23T02:17:50;8.63;;;3.43;;
4642;SDS011;2334;48.710;9.622;2022-10-23T02:20:28;6.57;;;3.60;;
4642;SDS011;2334;48.710;9.622;2022-10-23T02:23:02;4.50;;;2.73;;
4642;SDS011;2334;48.710;9.622;2022-10-23T02:25:42;4.57;;;3.50;;
4642;SDS011;2334;48.710;9.622;2022-10-23T02:28:17;14.87;;;3.30;;
4642;SDS011;2334;48.710;9.622;2022-10-23T02:30:50;3.73;;;2.30;;
4642;SDS011;2334;48.710;9.622;2022-10-23T02:33:17;2.87;;;2.60;;
4642;SDS011;2334;48.710;9.622;2022-10-23T02:35:45;6.03;;;2.63;;
4642;SDS011;2334;48.710;9.622;2022-10-23T02:38:29;3.80;;;2.67;;
4642;SDS011;2334;48.710;9.622;2022-10-23T02:41:02;6.43;;;2.50;;
4642;SDS011;2334;48.710;9.622;2022-10-23T02:43:42;4.73;;;3.00;;
4642;SDS011;2334;48.710;9.622;2022-10-23T02:46:19;3.80;;;2.57;;
4642;SDS011;2334;48.710;9.622;2022-10-23T02:48:52;3.10;;;2.30;;
4642;SDS011;2334;48.710;9.622;2022-10-23T02:51:28;3.90;;;3.03;;
4642;SDS011;2334;48.710;9.622;2022-10-23T02:54:00;5.20;;;3.60;;
4642;SDS011;2334;48.710;9.622;2022-10-23T02:56:34;4.83;;;4.20;;
4642;SDS011;2334;48.710;9.622;2022-10-23T02:59:06;8.50;;;3.90;;
4642;SDS011;2334;48.710;9.622;2022-10-23T03:01:39;2.80;;;2.60;;
4642;SDS011;2334;48.710;9.622;2022-10-23T03:04:13;4.70;;;2.00;;
4642;SDS011;2334;48.710;9.622;2022-10-23T03:06:42;2.63;;;2.40;;
4642;SDS011;2334;48.710;9.622;2022-10-23T03:09:10;5.40;;;3.07;;
4642;SDS011;2334;48.710;9.622;2022-10-23T03:11:37;3.43;;;2.47;;
4642;SDS011;2334;48.710;9.622;2022-10-23T03:14:04;4.27;;;3.10;;
4642;SDS011;2334;48.710;9.622;2022-10-23T03:16:32;4.50;;;2.80;;
4642;SDS011;2334;48.710;9.622;2022-10-23T03:18:59;8.00;;;3.60;;
4642;SDS011;2334;48.710;9.622;2022-10-23T03:21:25;4.57;;;2.80;;
4642;SDS011;2334;48.710;9.622;2022-10-23T03:23:52;13.20;;;3.27;;
4642;SDS011;2334;48.710;9.622;2022-10-23T03:26:19;4.13;;;2.80;;
4642;SDS011;2334;48.710;9.622;2022-10-23T03:28:46;8.40;;;3.67;;
4642;SDS011;2334;48.710;9.622;2022-10-23T03:31:13;4.87;;;3.10;;
4642;SDS011;2334;48.710;9.622;2022-10-23T03:33:41;7.00;;;4.17;;
4642;SDS011;2334;48.710;9.622;2022-10-23T03:36:08;4.03;;;3.57;;
4642;SDS011;2334;48.710;9.622;2022-10-23T03:38:35;4.70;;;3.60;;
4642;SDS011;2334;48.710;9.622;2022-10-23T03:41:02;6.87;;;3.90;;
4642;SDS011;2334;48.710;9.622;2022-10-23T03:43:29;7.30;;;3.57;;
4642;SDS011;2334;48.710;9.622;2022-10-23T03:45:56;10.07;;;5.30;;
4642;SDS011;2334;48.710;9.622;2022-10-23T03:48:23;5.37;;;3.50;;
4642;SDS011;2334;48.710;9.622;2022-10-23T03:50:51;12.83;;;2.90;;
4642;SDS011;2334;48.710;9.622;2022-10-23T03:53:18;5.37;;;2.97;;
4642;SDS011;2334;48.710;9.622;2022-10-23T03:55:45;7.00;;;3.37;;
4642;SDS011;2334;48.710;9.622;2022-10-23T03:58:12;3.67;;;2.60;;
4642;SDS011;2334;48.710;9.622;2022-10-23T04:00:39;4.20;;;2.70;;
4642;SDS011;2334;48.710;9.622;2022-10-23T04:03:06;10.60;;;2.40;;
4642;SDS011;2334;48.710;9.622;2022-10-23T04:05:33;3.50;;;2.07;;
4642;SDS011;2334;48.710;9.622;2022-10-23T04:08:01;3.23;;;2.60;;
4642;SDS011;2334;48.710;9.622;2022-10-23T04:10:28;3.37;;;1.87;;
4642;SDS011;2334;48.710;9.622;2022-10-23T04:12:55;8.10;;;2.30;;
4642;SDS011;2334;48.710;9.622;2022-10-23T04:15:22;3.57;;;3.07;;
4642;SDS011;2334;48.710;9.622;2022-10-23T04:17:49;2.80;;;2.20;;
4642;SDS011;2334;48.710;9.622;2022-10-23T04:20:15;2.90;;;2.27;;
4642;SDS011;2334;48.710;9.622;2022-10-23T04:22:42;2.50;;;2.03;;
4642;SDS011;2334;48.710;9.622;2022-10-23T04:25:11;2.73;;;1.63;;
4642;SDS011;2334;48.710;9.622;2022-10-23T04:27:38;9.93;;;2.00;;
4642;SDS011;2334;48.710;9.622;2022-10-23T04:30:05;1.90;;;1.80;;
4642;SDS011;2334;48.710;9.622;2022-10-23T04:32:33;5.87;;;2.03;;
4642;SDS011;2334;48.710;9.622;2022-10-23T04:35:00;1.60;;;1.50;;
4642;SDS011;2334;48.710;9.622;2022-10-23T04:37:27;1.97;;;1.60;;
4642;SDS011;2334;48.710;9.622;2022-10-23T04:39:53;7.93;;;2.00;;
4642;SDS011;2334;48.710;9.622;2022-10-23T04:42:22;1.30;;;1.20;;
4642;SDS011;2334;48.710;9.622;2022-10-23T04:44:48;1.43;;;1.33;;
4642;SDS011;2334;48.710;9.622;2022-10-23T04:47:15;2.67;;;1.27;;
4642;SDS011;2334;48.710;9.622;2022-10-23T04:49:42;15.67;;;1.93;;
4642;SDS011;2334;48.710;9.622;2022-10-23T04:52:09;1.90;;;1.80;;
4642;SDS011;2334;48.710;9.622;2022-10-23T04:54:36;5.20;;;2.40;;
4642;SDS011;2334;48.710;9.622;2022-10-23T04:57:03;3.40;;;2.37;;
4642;SDS011;2334;48.710;9.622;2022-10-23T04:59:32;3.80;;;2.13;;
4642;SDS011;2334;48.710;9.622;2022-10-23T05:01:59;2.23;;;2.07;;
4642;SDS011;2334;48.710;9.622;2022-10-23T05:04:26;7.40;;;2.70;;
4642;SDS011;2334;48.710;9.622;2022-10-23T05:06:53;3.20;;;2.80;;
4642;SDS011;2334;48.710;9.622;2022-10-23T05:09:19;6.03;;;2.37;;
4642;SDS011;2334;48.710;9.622;2022-10-23T05:11:47;5.07;;;2.47;;
4642;SDS011;2334;48.710;9.622;2022-10-23T05:14:14;3.83;;;2.00;;
4642;SDS011;2334;48.710;9.622;2022-10-23T05:16:43;3.63;;;2.30;;
4642;SDS011;2334;48.710;9.622;2022-10-23T05:19:17;2.70;;;1.80;;
4642;SDS011;2334;48.710;9.622;2022-10-23T05:21:47;1.77;;;1.67;;
4642;SDS011;2334;48.710;9.622;2022-10-23T05:24:19;5.30;;;1.50;;
4642;SDS011;2334;48.710;9.622;2022-10-23T05:26:46;1.67;;;1.57;;
4642;SDS011;2334;48.710;9.622;2022-10-23T05:29:15;2.97;;;1.60;;
4642;SDS011;2334;48.710;9.622;2022-10-23T05:31:43;1.77;;;1.20;;
4642;SDS011;2334;48.710;9.622;2022-10-23T05:34:11;1.70;;;1.60;;
4642;SDS011;2334;48.710;9.622;2022-10-23T05:36:40;1.83;;;1.73;;
4642;SDS011;2334;48.710;9.622;2022-10-23T05:39:07;2.03;;;1.70;;
4642;SDS011;2334;48.710;9.622;2022-10-23T05:41:34;1.90;;;1.60;;
4642;SDS011;2334;48.710;9.622;2022-10-23T05:44:01;2.07;;;1.90;;
4642;SDS011;2334;48.710;9.622;2022-10-23T05:46:28;2.30;;;1.50;;
4642;SDS011;2334;48.710;9.622;2022-10-23T05:48:56;2.10;;;1.93;;
4642;SDS011;2334;48.710;9.622;2022-10-23T05:51:23;2.00;;;1.90;;
4642;SDS011;2334;48.710;9.622;2022-10-23T05:53:50;5.17;;;3.00;;
4642;SDS011;2334;48.710;9.622;2022-10-23T05:56:18;4.00;;;3.17;;
4642;SDS011;2334;48.710;9.622;2022-10-23T05:58:45;4.80;;;2.90;;
4642;SDS011;2334;48.710;9.622;2022-10-23T06:01:12;7.90;;;3.13;;
4642;SDS011;2334;48.710;9.622;2022-10-23T06:03:41;3.90;;;2.90;;
4642;SDS011;2334;48.710;9.622;2022-10-23T06:06:09;8.77;;;3.87;;
4642;SDS011;2334;48.710;9.622;2022-10-23T06:08:36;2.80;;;2.60;;
4642;SDS011;2334;48.710;9.622;2022-10-23T06:11:06;4.83;;;3.07;;
4642;SDS011;2334;48.710;9.622;2022-10-23T06:13:34;3.30;;;3.00;;
4642;SDS011;2334;48.710;9.622;2022-10-23T06:16:07;2.93;;;2.73;;
4642;SDS011;2334;48.710;9.622;2022-10-23T06:18:34;3.63;;;2.50;;
4642;SDS011;2334;48.710;9.622;2022-10-23T06:21:01;2.93;;;2.60;;
4642;SDS011;2334;48.710;9.622;2022-10-23T06:23:30;11.00;;;2.77;;
4642;SDS011;2334;48.710;9.622;2022-10-23T06:25:57;7.07;;;2.40;;
4642;SDS011;2334;48.710;9.622;2022-10-23T06:28:25;7.77;;;3.80;;
4642;SDS011;2334;48.710;9.622;2022-10-23T06:30:51;4.77;;;3.40;;
4642;SDS011;2334;48.710;9.622;2022-10-23T06:33:18;11.43;;;2.53;;
4642;SDS011;2334;48.710;9.622;2022-10-23T06:35:45;3.50;;;2.70;;
4642;SDS011;2334;48.710;9.622;2022-10-23T06:38:12;5.00;;;2.37;;
4642;SDS011;2334;48.710;9.622;2022-10-23T06:40:41;3.83;;;3.23;;
4642;SDS011;2334;48.710;9.622;2022-10-23T06:43:09;5.63;;;2.67;;
4642;SDS011;2334;48.710;9.622;2022-10-23T06:45:36;6.17;;;2.40;;
4642;SDS011;2334;48.710;9.622;2022-10-23T06:48:04;2.87;;;2.50;;
4642;SDS011;2334;48.710;9.622;2022-10-23T06:50:31;4.47;;;2.60;;
4642;SDS011;2334;48.710;9.622;2022-10-23T06:52:58;6.67;;;2.90;;
4642;SDS011;2334;48.710;9.622;2022-10-23T06:55:24;4.60;;;3.03;;
4642;SDS011;2334;48.710;9.622;2022-10-23T06:57:53;3.33;;;3.03;;
4642;SDS011;2334;48.710;9.622;2022-10-23T07:00:20;7.70;;;3.33;;
4642;SDS011;2334;48.710;9.622;2022-10-23T07:02:47;6.53;;;3.50;;
4642;SDS011;2334;48.710;9.622;2022-10-23T07:05:14;6.13;;;2.30;;
4642;SDS011;2334;48.710;9.622;2022-10-23T07:07:41;4.50;;;2.20;;
4642;SDS011;2334;48.710;9.622;2022-10-23T07:10:08;4.13;;;3.13;;
4642;SDS011;2334;48.710;9.622;2022-10-23T07:12:35;13.77;;;3.33;;
4642;SDS011;2334;48.710;9.622;2022-10-23T07:15:03;4.77;;;3.30;;
4642;SDS011;2334;48.710;9.622;2022-10-23T07:17:31;2.63;;;2.43;;
4642;SDS011;2334;48.710;9.622;2022-10-23T07:19:58;12.90;;;3.90;;
4642;SDS011;2334;48.710;9.622;2022-10-23T07:22:25;4.40;;;2.70;;
4642;SDS011;2334;48.710;9.622;2022-10-23T07:24:51;4.83;;;2.40;;
4642;SDS011;2334;48.710;9.622;2022-10-23T07:27:18;4.23;;;2.40;;
4642;SDS011;2334;48.710;9.622;2022-10-23T07:29:48;7.33;;;3.03;;
4642;SDS011;2334;48.710;9.622;2022-10-23T07:32:16;3.73;;;2.23;;
4642;SDS011;2334;48.710;9.622;2022-10-23T07:34:44;2.90;;;2.70;;
4642;SDS011;2334;48.710;9.622;2022-10-23T07:37:10;2.30;;;1.90;;
4642;SDS011;2334;48.710;9.622;2022-10-23T07:39:37;5.20;;;1.70;;
4642;SDS011;2334;48.710;9.622;2022-10-23T07:42:04;1.93;;;1.83;;
4642;SDS011;2334;48.710;9.622;2022-10-23T07:44:31;4.93;;;1.60;;
4642;SDS011;2334;48.710;9.622;2022-10-23T07:46:58;3.80;;;2.10;;
4642;SDS011;2334;48.710;9.622;2022-10-23T07:49:27;1.93;;;1.80;;
4642;SDS011;2334;48.710;9.622;2022-10-23T07:51:53;2.53;;;1.50;;
4642;SDS011;2334;48.710;9.622;2022-10-23T07:54:22;2.00;;;1.80;;
4642;SDS011;2334;48.710;9.622;2022-10-23T07:56:50;3.27;;;2.40;;
4642;SDS011;2334;48.710;9.622;2022-10-23T07:59:16;4.60;;;2.37;;
4642;SDS011;2334;48.710;9.622;2022-10-23T08:01:43;4.83;;;1.60;;
4642;SDS011;2334;48.710;9.622;2022-10-23T08:04:12;4.77;;;1.80;;
4642;SDS011;2334;48.710;9.622;2022-10-23T08:06:40;1.50;;;1.40;;
4642;SDS011;2334;48.710;9.622;2022-10-23T08:09:07;1.43;;;1.33;;
4642;SDS011;2334;48.710;9.622;2022-10-23T08:11:34;3.80;;;2.17;;
4642;SDS011;2334;48.710;9.622;2022-10-23T08:14:01;2.10;;;1.50;;
4642;SDS011;2334;48.710;9.622;2022-10-23T08:16:30;1.67;;;1.50;;
4642;SDS011;2334;48.710;9.622;2022-10-23T08:18:58;1.63;;;1.40;;
4642;SDS011;2334;48.710;9.622;2022-10-23T08:21:25;2.33;;;1.50;;
4642;SDS011;2334;48.710;9.622;2022-10-23T08:23:53;2.30;;;1.47;;
4642;SDS011;2334;48.710;9.622;2022-10-23T08:26:21;1.60;;;1.30;;
4642;SDS011;2334;48.710;9.622;2022-10-23T08:28:48;2.53;;;1.60;;
4642;SDS011;2334;48.710;9.622;2022-10-23T08:31:16;1.33;;;1.23;;
4642;SDS011;2334;48.710;9.622;2022-10-23T08:33:45;1.13;;;1.10;;
4642;SDS011;2334;48.710;9.622;2022-10-23T08:36:14;6.83;;;1.30;;
4642;SDS011;2334;48.710;9.622;2022-10-23T08:38:43;1.70;;;1.60;;
4642;SDS011;2334;48.710;9.622;2022-10-23T08:41:15;2.33;;;1.70;;
4642;SDS011;2334;48.710;9.622;2022-10-23T08:43:50;1.30;;;1.20;;
4642;SDS011;2334;48.710;9.622;2022-10-23T08:46:22;1.30;;;1.20;;
4642;SDS011;2334;48.710;9.622;2022-10-23T08:48:54;1.83;;;1.37;;
4642;SDS011;2334;48.710;9.622;2022-10-23T08:51:26;2.73;;;1.40;;
4642;SDS011;2334;48.710;9.622;2022-10-23T08:54:02;4.50;;;1.70;;
4642;SDS011;2334;48.710;9.622;2022-10-23T08:56:37;3.80;;;1.40;;
4642;SDS011;2334;48.710;9.622;2022-10-23T08:59:10;1.67;;;1.10;;
4642;SDS011;2334;48.710;9.622;2022-10-23T09:01:48;1.00;;;1.00;;
4642;SDS011;2334;48.710;9.622;2022-10-23T09:04:17;0.90;;;0.80;;
4642;SDS011;2334;48.710;9.622;2022-10-23T09:06:45;1.00;;;1.00;;
4642;SDS011;2334;48.710;9.622;2022-10-23T09:09:23;1.80;;;1.07;;
4642;SDS011;2334;48.710;9.622;2022-10-23T09:12:09;0.93;;;0.80;;
4642;SDS011;2334;48.710;9.622;2022-10-23T09:14:54;0.80;;;0.80;;
4642;SDS011;2334;48.710;9.622;2022-10-23T09:17:29;0.90;;;0.90;;
4642;SDS011;2334;48.710;9.622;2022-10-23T09:19:59;1.17;;;0.90;;
4642;SDS011;2334;48.710;9.622;2022-10-23T09:22:35;1.50;;;1.10;;
4642;SDS011;2334;48.710;9.622;2022-10-23T09:25:06;3.90;;;0.90;;
4642;SDS011;2334;48.710;9.622;2022-10-23T09:27:36;1.00;;;0.97;;
4642;SDS011;2334;48.710;9.622;2022-10-23T09:30:03;1.10;;;1.00;;
4642;SDS011;2334;48.710;9.622;2022-10-23T09:32:33;1.17;;;0.80;;
4642;SDS011;2334;48.710;9.622;2022-10-23T09:35:01;0.80;;;0.80;;
4642;SDS011;2334;48.710;9.622;2022-10-23T09:37:29;1.10;;;0.80;;
4642;SDS011;2334;48.710;9.622;2022-10-23T09:40:11;0.80;;;0.80;;
4642;SDS011;2334;48.710;9.622;2022-10-23T09:42:50;0.70;;;0.70;;
4642;SDS011;2334;48.710;9.622;2022-10-23T09:45:24;0.90;;;0.60;;
4642;SDS011;2334;48.710;9.622;2022-10-23T09:48:04;0.70;;;0.70;;
4642;SDS011;2334;48.710;9.622;2022-10-23T09:50:34;4.77;;;0.80;;
4642;SDS011;2334;48.710;9.622;2022-10-23T09:53:01;0.90;;;0.90;;
4642;SDS011;2334;48.710;9.622;2022-10-23T09:55:28;1.00;;;0.90;;
4642;SDS011;2334;48.710;9.622;2022-10-23T09:57:57;0.90;;;0.90;;
4642;SDS011;2334;48.710;9.622;2022-10-23T10:00:24;1.07;;;0.90;;
4642;SDS011;2334;48.710;9.622;2022-10-23T10:02:56;1.13;;;0.90;;
4642;SDS011;2334;48.710;9.622;2022-10-23T10:05:25;0.87;;;0.87;;
4642;SDS011;2334;48.710;9.622;2022-10-23T10:07:55;1.20;;;0.87;;
4642;SDS011;2334;48.710;9.622;2022-10-23T10:10:25;0.90;;;0.90;;
4642;SDS011;2334;48.710;9.622;2022-10-23T10:12:57;0.90;;;0.90;;
4642;SDS011;2334;48.710;9.622;2022-10-23T10:15:32;0.73;;;0.73;;
4642;SDS011;2334;48.710;9.622;2022-10-23T10:18:06;0.60;;;0.60;;
4642;SDS011;2334;48.710;9.622;2022-10-23T10:20:53;0.83;;;0.80;;
4642;SDS011;2334;48.710;9.622;2022-10-23T10:23:27;0.90;;;0.90;;
4642;SDS011;2334;48.710;9.622;2022-10-23T10:26:06;2.67;;;1.00;;
4642;SDS011;2334;48.710;9.622;2022-10-23T10:28:47;2.53;;;1.07;;
4642;SDS011;2334;48.710;9.622;2022-10-23T10:31:22;1.20;;;1.10;;
4642;SDS011;2334;48.710;9.622;2022-10-23T10:33:56;1.20;;;1.10;;
4642;SDS011;2334;48.710;9.622;2022-10-23T10:36:39;1.40;;;1.23;;
4642;SDS011;2334;48.710;9.622;2022-10-23T10:39:15;2.70;;;1.17;;
4642;SDS011;2334;48.710;9.622;2022-10-23T10:41:52;1.73;;;1.00;;
4642;SDS011;2334;48.710;9.622;2022-10-23T10:44:39;1.00;;;0.90;;
4642;SDS011;2334;48.710;9.622;2022-10-23T10:47:17;1.20;;;1.00;;
4642;SDS011;2334;48.710;9.622;2022-10-23T10:49:59;0.87;;;0.80;;
4642;SDS011;2334;48.710;9.622;2022-10-23T10:52:32;1.33;;;0.90;;
4642;SDS011;2334;48.710;9.622;2022-10-23T10:55:09;2.30;;;0.97;;
4642;SDS011;2334;48.710;9.622;2022-10-23T10:57:43;9.23;;;1.53;;
4642;SDS011;2334;48.710;9.622;2022-10-23T11:00:16;1.93;;;1.10;;
4642;SDS011;2334;48.710;9.622;2022-10-23T11:02:45;5.97;;;1.27;;
4642;SDS011;2334;48.710;9.622;2022-10-23T11:05:18;4.00;;;1.07;;
4642;SDS011;2334;48.710;9.622;2022-10-23T11:07:53;1.00;;;1.00;;
4642;SDS011;2334;48.710;9.622;2022-10-23T11:10:23;5.87;;;1.00;;
4642;SDS011;2334;48.710;9.622;2022-10-23T11:12:50;4.50;;;1.33;;
4642;SDS011;2334;48.710;9.622;2022-10-23T11:15:19;4.60;;;1.30;;
4642;SDS011;2334;48.710;9.622;2022-10-23T11:17:51;1.47;;;0.90;;
4642;SDS011;2334;48.710;9.622;2022-10-23T11:26:29;2.47;;;1.10;;
4642;SDS011;2334;48.710;9.622;2022-10-23T11:29:12;0.87;;;0.87;;
4642;SDS011;2334;48.710;9.622;2022-10-23T11:32:02;0.87;;;0.87;;
4642;SDS011;2334;48.710;9.622;2022-10-23T11:34:43;1.20;;;1.10;;
4642;SDS011;2334;48.710;9.622;2022-10-23T11:37:22;1.67;;;1.50;;
4642;SDS011;2334;48.710;9.622;2022-10-23T11:39:58;1.03;;;0.80;;
4642;SDS011;2334;48.710;9.622;2022-10-23T11:42:30;1.03;;;1.00;;
4642;SDS011;2334;48.710;9.622;2022-10-23T11:44:59;0.80;;;0.80;;
4642;SDS011;2334;48.710;9.622;2022-10-23T11:47:29;1.20;;;0.90;;
4642;SDS011;2334;48.710;9.622;2022-10-23T11:50:15;2.30;;;1.30;;
4642;SDS011;2334;48.710;9.622;2022-10-23T11:52:52;1.30;;;1.20;;
4642;SDS011;2334;48.710;9.622;2022-10-23T11:55:22;0.87;;;0.87;;
4642;SDS011;2334;48.710;9.622;2022-10-23T12:00:56;2.83;;;1.30;;
4642;SDS011;2334;48.710;9.622;2022-10-23T12:03:34;1.27;;;1.17;;
4642;SDS011;2334;48.710;9.622;2022-10-23T12:06:06;1.10;;;1.00;;
4642;SDS011;2334;48.710;9.622;2022-10-23T12:08:49;1.67;;;1.07;;
4642;SDS011;2334;48.710;9.622;2022-10-23T12:11:23;2.07;;;0.90;;
4642;SDS011;2334;48.710;9.622;2022-10-23T12:14:07;1.33;;;1.23;;
4642;SDS011;2334;48.710;9.622;2022-10-23T12:16:50;0.93;;;0.90;;
4642;SDS011;2334;48.710;9.622;2022-10-23T12:19:20;3.20;;;1.00;;
4642;SDS011;2334;48.710;9.622;2022-10-23T12:21:49;2.50;;;1.00;;
4642;SDS011;2334;48.710;9.622;2022-10-23T12:24:25;1.43;;;1.00;;
4642;SDS011;2334;48.710;9.622;2022-10-23T12:27:06;1.50;;;1.40;;
4642;SDS011;2334;48.710;9.622;2022-10-23T12:29:50;5.03;;;0.90;;
4642;SDS011;2334;48.710;9.622;2022-10-23T12:32:27;1.13;;;1.00;;
4642;SDS011;2334;48.710;9.622;2022-10-23T12:35:08;1.10;;;1.00;;
4642;SDS011;2334;48.710;9.622;2022-10-23T12:37:50;3.57;;;1.43;;
4642;SDS011;2334;48.710;9.622;2022-10-23T12:40:26;1.50;;;1.10;;
4642;SDS011;2334;48.710;9.622;2022-10-23T12:42:55;1.03;;;1.03;;
4642;SDS011;2334;48.710;9.622;2022-10-23T12:45:23;2.03;;;1.80;;
4642;SDS011;2334;48.710;9.622;2022-10-23T12:47:52;3.50;;;1.13;;
4642;SDS011;2334;48.710;9.622;2022-10-23T12:50:22;2.77;;;1.00;;
4642;SDS011;2334;48.710;9.622;2022-10-23T12:52:50;1.20;;;1.20;;
4642;SDS011;2334;48.710;9.622;2022-10-23T12:55:19;1.70;;;1.10;;
4642;SDS011;2334;48.710;9.622;2022-10-23T12:57:46;3.80;;;1.47;;
4642;SDS011;2334;48.710;9.622;2022-10-23T13:00:14;1.10;;;1.10;;
4642;SDS011;2334;48.710;9.622;2022-10-23T13:02:43;1.30;;;1.03;;
4642;SDS011;2334;48.710;9.622;2022-10-23T13:05:11;3.87;;;1.40;;
4642;SDS011;2334;48.710;9.622;2022-10-23T13:07:44;1.83;;;1.57;;
4642;SDS011;2334;48.710;9.622;2022-10-23T13:10:12;1.90;;;1.13;;
4642;SDS011;2334;48.710;9.622;2022-10-23T13:12:40;2.20;;;1.13;;
4642;SDS011;2334;48.710;9.622;2022-10-23T13:15:16;1.70;;;1.00;;
4642;SDS011;2334;48.710;9.622;2022-10-23T13:17:44;3.87;;;1.30;;
4642;SDS011;2334;48.710;9.622;2022-10-23T13:20:20;2.27;;;1.00;;
4642;SDS011;2334;48.710;9.622;2022-10-23T13:22:54;1.07;;;0.97;;
4642;SDS011;2334;48.710;9.622;2022-10-23T13:25:24;1.30;;;1.20;;
4642;SDS011;2334;48.710;9.622;2022-10-23T13:28:01;1.30;;;1.20;;
4642;SDS011;2334;48.710;9.622;2022-10-23T13:30:36;1.63;;;1.10;;
4642;SDS011;2334;48.710;9.622;2022-10-23T13:33:12;3.10;;;0.90;;
4642;SDS011;2334;48.710;9.622;2022-10-23T13:35:40;1.77;;;1.17;;
4642;SDS011;2334;48.710;9.622;2022-10-23T13:38:09;5.37;;;1.20;;
4642;SDS011;2334;48.710;9.622;2022-10-23T13:40:36;1.20;;;1.10;;
4642;SDS011;2334;48.710;9.622;2022-10-23T13:43:04;1.30;;;1.20;;
4642;SDS011;2334;48.710;9.622;2022-10-23T13:45:39;1.37;;;1.30;;
4642;SDS011;2334;48.710;9.622;2022-10-23T13:48:07;1.43;;;1.33;;
4642;SDS011;2334;48.710;9.622;2022-10-23T13:50:41;3.33;;;1.20;;
4642;SDS011;2334;48.710;9.622;2022-10-23T13:53:09;1.77;;;1.20;;
4642;SDS011;2334;48.710;9.622;2022-10-23T13:55:37;0.97;;;0.93;;
4642;SDS011;2334;48.710;9.622;2022-10-23T13:58:05;2.47;;;1.03;;
4642;SDS011;2334;48.710;9.622;2022-10-23T14:00:33;0.90;;;0.90;;
4642;SDS011;2334;48.710;9.622;2022-10-23T14:03:00;2.90;;;1.30;;
4642;SDS011;2334;48.710;9.622;2022-10-23T14:05:28;2.00;;;1.10;;
4642;SDS011;2334;48.710;9.622;2022-10-23T14:07:54;3.33;;;0.90;;
4642;SDS011;2334;48.710;9.622;2022-10-23T14:10:23;1.10;;;1.00;;
4642;SDS011;2334;48.710;9.622;2022-10-23T14:12:50;5.03;;;1.30;;
4642;SDS011;2334;48.710;9.622;2022-10-23T14:15:19;1.33;;;1.00;;
4642;SDS011;2334;48.710;9.622;2022-10-23T14:17:46;1.23;;;1.10;;
4642;SDS011;2334;48.710;9.622;2022-10-23T14:20:13;1.73;;;1.30;;
4642;SDS011;2334;48.710;9.622;2022-10-23T14:22:40;2.50;;;1.37;;
4642;SDS011;2334;48.710;9.622;2022-10-23T14:25:07;1.63;;;1.53;;
4642;SDS011;2334;48.710;9.622;2022-10-23T14:27:35;1.33;;;1.20;;
4642;SDS011;2334;48.710;9.622;2022-10-23T14:30:03;3.87;;;1.50;;
4642;SDS011;2334;48.710;9.622;2022-10-23T14:32:30;1.40;;;1.30;;
4642;SDS011;2334;48.710;9.622;2022-10-23T14:34:57;1.17;;;1.10;;
4642;SDS011;2334;48.710;9.622;2022-10-23T14:37:28;1.60;;;1.50;;
4642;SDS011;2334;48.710;9.622;2022-10-23T14:39:55;1.77;;;1.40;;
4642;SDS011;2334;48.710;9.622;2022-10-23T14:42:22;1.10;;;1.03;;
4642;SDS011;2334;48.710;9.622;2022-10-23T14:44:50;2.33;;;1.70;;
4642;SDS011;2334;48.710;9.622;2022-10-23T14:47:17;1.27;;;1.10;;
4642;SDS011;2334;48.710;9.622;2022-10-23T14:49:45;2.27;;;1.20;;
4642;SDS011;2334;48.710;9.622;2022-10-23T14:52:14;3.17;;;1.60;;
4642;SDS011;2334;48.710;9.622;2022-10-23T14:54:41;9.23;;;2.87;;
4642;SDS011;2334;48.710;9.622;2022-10-23T14:57:08;3.97;;;1.40;;
4642;SDS011;2334;48.710;9.622;2022-10-23T14:59:36;1.23;;;1.13;;
4642;SDS011;2334;48.710;9.622;2022-10-23T15:02:05;3.80;;;2.63;;
4642;SDS011;2334;48.710;9.622;2022-10-23T15:04:31;3.10;;;1.80;;
4642;SDS011;2334;48.710;9.622;2022-10-23T15:06:58;2.83;;;1.40;;
4642;SDS011;2334;48.710;9.622;2022-10-23T15:09:25;3.10;;;1.90;;
4642;SDS011;2334;48.710;9.622;2022-10-23T15:11:52;1.50;;;1.40;;
4642;SDS011;2334;48.710;9.622;2022-10-23T15:14:19;1.77;;;1.60;;
4642;SDS011;2334;48.710;9.622;2022-10-23T15:16:46;19.20;;;1.93;;
4642;SDS011;2334;48.710;9.622;2022-10-23T15:19:14;2.73;;;1.90;;
4642;SDS011;2334;48.710;9.622;2022-10-23T15:21:41;2.73;;;2.20;;
4642;SDS011;2334;48.710;9.622;2022-10-23T15:24:08;1.73;;;1.63;;
4642;SDS011;2334;48.710;9.622;2022-10-23T15:26:35;5.30;;;2.03;;
4642;SDS011;2334;48.710;9.622;2022-10-23T15:29:02;4.47;;;1.90;;
4642;SDS011;2334;48.710;9.622;2022-10-23T15:31:40;2.30;;;2.10;;
4642;SDS011;2334;48.710;9.622;2022-10-23T15:34:09;3.10;;;2.10;;
4642;SDS011;2334;48.710;9.622;2022-10-23T15:36:38;6.90;;;2.40;;
4642;SDS011;2334;48.710;9.622;2022-10-23T15:39:06;4.07;;;2.27;;
4642;SDS011;2334;48.710;9.622;2022-10-23T15:41:35;6.33;;;1.67;;
4642;SDS011;2334;48.710;9.622;2022-10-23T15:44:04;2.53;;;1.73;;